sensor_id;sensor_type;location;lat;lon;timestamp;temperature;humidity
23813;DHT22;12087;45.190;5.688;2022-07-10T00:01:18;22.90;83.30
23813;DHT22;12087;45.190;5.688;2022-07-10T00:06:41;22.90;83.60
23813;DHT22;12087;45.190;5.688;2022-07-10T00:12:07;22.80;83.30
23813;DHT22;12087;45.190;5.688;2022-07-10T00:17:31;22.80;83.90
23813;DHT22;12087;45.190;5.688;2022-07-10T00:22:53;22.80;84.20
23813;DHT22;12087;45.190;5.688;2022-07-10T00:28:15;22.70;84.80
23813;DHT22;12087;45.190;5.688;2022-07-10T00:33:39;22.70;84.40
23813;DHT22;12087;45.190;5.688;2022-07-10T00:39:01;22.70;84.40
23813;DHT22;12087;45.190;5.688;2022-07-10T00:44:24;22.60;84.70
23813;DHT22;12087;45.190;5.688;2022-07-10T00:49:47;22.60;84.90
23813;DHT22;12087;45.190;5.688;2022-07-10T00:55:10;22.50;84.30
23813;DHT22;12087;45.190;5.688;2022-07-10T01:00:34;22.40;84.30
23813;DHT22;12087;45.190;5.688;2022-07-10T01:05:59;22.40;84.60
23813;DHT22;12087;45.190;5.688;2022-07-10T01:11:22;22.30;84.30
23813;DHT22;12087;45.190;5.688;2022-07-10T01:16:44;22.30;84.10
23813;DHT22;12087;45.190;5.688;2022-07-10T01:22:07;22.30;85.20
23813;DHT22;12087;45.190;5.688;2022-07-10T01:27:30;22.20;86.00
23813;DHT22;12087;45.190;5.688;2022-07-10T01:32:52;22.10;86.20
23813;DHT22;12087;45.190;5.688;2022-07-10T01:38:16;22.00;87.30
23813;DHT22;12087;45.190;5.688;2022-07-10T01:43:38;21.80;88.10
23813;DHT22;12087;45.190;5.688;2022-07-10T01:49:03;21.80;88.70
23813;DHT22;12087;45.190;5.688;2022-07-10T01:54:26;21.70;89.00
23813;DHT22;12087;45.190;5.688;2022-07-10T01:59:49;21.60;89.50
23813;DHT22;12087;45.190;5.688;2022-07-10T02:05:11;21.50;90.00
23813;DHT22;12087;45.190;5.688;2022-07-10T02:10:34;21.40;90.30
23813;DHT22;12087;45.190;5.688;2022-07-10T02:15:57;21.30;90.30
23813;DHT22;12087;45.190;5.688;2022-07-10T02:21:19;21.20;90.50
23813;DHT22;12087;45.190;5.688;2022-07-10T02:26:43;21.10;90.60
23813;DHT22;12087;45.190;5.688;2022-07-10T02:32:06;21.00;90.50
23813;DHT22;12087;45.190;5.688;2022-07-10T02:37:28;20.90;90.90
23813;DHT22;12087;45.190;5.688;2022-07-10T02:42:51;20.90;91.10
23813;DHT22;12087;45.190;5.688;2022-07-10T02:48:14;20.80;91.30
23813;DHT22;12087;45.190;5.688;2022-07-10T02:53:38;20.80;91.40
23813;DHT22;12087;45.190;5.688;2022-07-10T02:59:02;20.70;91.30
23813;DHT22;12087;45.190;5.688;2022-07-10T03:04:24;20.60;91.70
23813;DHT22;12087;45.190;5.688;2022-07-10T03:09:47;20.60;91.90
23813;DHT22;12087;45.190;5.688;2022-07-10T03:15:11;20.50;91.90
23813;DHT22;12087;45.190;5.688;2022-07-10T03:20:33;20.60;92.00
23813;DHT22;12087;45.190;5.688;2022-07-10T03:25:55;20.60;92.20
23813;DHT22;12087;45.190;5.688;2022-07-10T03:31:19;20.60;92.50
23813;DHT22;12087;45.190;5.688;2022-07-10T03:36:41;20.50;92.60
23813;DHT22;12087;45.190;5.688;2022-07-10T03:42:04;20.50;92.90
23813;DHT22;12087;45.190;5.688;2022-07-10T03:47:28;20.40;93.00
23813;DHT22;12087;45.190;5.688;2022-07-10T03:52:50;20.40;93.20
23813;DHT22;12087;45.190;5.688;2022-07-10T03:58:12;20.40;93.60
23813;DHT22;12087;45.190;5.688;2022-07-10T04:03:36;20.30;94.00
23813;DHT22;12087;45.190;5.688;2022-07-10T04:08:58;20.20;94.60
23813;DHT22;12087;45.190;5.688;2022-07-10T04:14:20;20.20;94.20
23813;DHT22;12087;45.190;5.688;2022-07-10T04:19:44;20.30;94.30
23813;DHT22;12087;45.190;5.688;2022-07-10T04:25:07;20.20;94.30
23813;DHT22;12087;45.190;5.688;2022-07-10T04:30:30;20.30;94.30
23813;DHT22;12087;45.190;5.688;2022-07-10T04:35:53;20.20;94.80
23813;DHT22;12087;45.190;5.688;2022-07-10T04:41:16;20.10;95.10
23813;DHT22;12087;45.190;5.688;2022-07-10T04:46:38;20.00;95.80
23813;DHT22;12087;45.190;5.688;2022-07-10T04:52:02;19.90;96.00
23813;DHT22;12087;45.190;5.688;2022-07-10T04:57:24;19.80;96.70
23813;DHT22;12087;45.190;5.688;2022-07-10T05:02:46;19.80;97.00
23813;DHT22;12087;45.190;5.688;2022-07-10T05:08:10;19.80;97.50
23813;DHT22;12087;45.190;5.688;2022-07-10T05:13:32;19.90;97.70
23813;DHT22;12087;45.190;5.688;2022-07-10T05:18:54;19.90;97.70
23813;DHT22;12087;45.190;5.688;2022-07-10T05:24:18;20.00;97.60
23813;DHT22;12087;45.190;5.688;2022-07-10T05:29:40;20.00;97.70
23813;DHT22;12087;45.190;5.688;2022-07-10T05:35:03;20.10;98.10
23813;DHT22;12087;45.190;5.688;2022-07-10T05:40:26;20.10;98.50
23813;DHT22;12087;45.190;5.688;2022-07-10T05:45:48;20.20;98.50
23813;DHT22;12087;45.190;5.688;2022-07-10T05:51:11;20.30;98.80
23813;DHT22;12087;45.190;5.688;2022-07-10T05:56:34;20.30;98.80
23813;DHT22;12087;45.190;5.688;2022-07-10T06:01:56;20.50;97.30
23813;DHT22;12087;45.190;5.688;2022-07-10T06:07:19;20.60;97.30
23813;DHT22;12087;45.190;5.688;2022-07-10T06:12:42;20.70;96.80
23813;DHT22;12087;45.190;5.688;2022-07-10T06:18:04;20.80;96.80
23813;DHT22;12087;45.190;5.688;2022-07-10T06:23:27;20.80;97.40
23813;DHT22;12087;45.190;5.688;2022-07-10T06:28:50;20.90;96.60
23813;DHT22;12087;45.190;5.688;2022-07-10T06:34:13;21.00;96.40
23813;DHT22;12087;45.190;5.688;2022-07-10T06:39:35;21.10;96.50
23813;DHT22;12087;45.190;5.688;2022-07-10T06:44:58;21.20;95.50
23813;DHT22;12087;45.190;5.688;2022-07-10T06:50:21;21.20;94.20
23813;DHT22;12087;45.190;5.688;2022-07-10T06:55:43;21.30;94.40
23813;DHT22;12087;45.190;5.688;2022-07-10T07:01:08;21.40;94.50
23813;DHT22;12087;45.190;5.688;2022-07-10T07:06:30;21.50;94.40
23813;DHT22;12087;45.190;5.688;2022-07-10T07:11:52;21.60;94.00
23813;DHT22;12087;45.190;5.688;2022-07-10T07:17:16;21.70;93.30
23813;DHT22;12087;45.190;5.688;2022-07-10T07:22:43;21.80;93.40
23813;DHT22;12087;45.190;5.688;2022-07-10T07:28:23;21.80;92.50
23813;DHT22;12087;45.190;5.688;2022-07-10T07:33:53;21.90;92.80
23813;DHT22;12087;45.190;5.688;2022-07-10T07:39:18;22.00;92.50
23813;DHT22;12087;45.190;5.688;2022-07-10T07:44:41;22.10;91.60
23813;DHT22;12087;45.190;5.688;2022-07-10T07:50:05;22.20;92.20
23813;DHT22;12087;45.190;5.688;2022-07-10T07:55:29;22.30;91.40
23813;DHT22;12087;45.190;5.688;2022-07-10T08:00:51;22.40;91.00
23813;DHT22;12087;45.190;5.688;2022-07-10T08:06:15;22.60;91.50
23813;DHT22;12087;45.190;5.688;2022-07-10T08:11:37;22.70;91.10
23813;DHT22;12087;45.190;5.688;2022-07-10T08:16:59;22.90;88.60
23813;DHT22;12087;45.190;5.688;2022-07-10T08:22:23;23.00;88.90
23813;DHT22;12087;45.190;5.688;2022-07-10T08:27:45;23.10;88.60
23813;DHT22;12087;45.190;5.688;2022-07-10T08:33:08;23.30;90.30
23813;DHT22;12087;45.190;5.688;2022-07-10T08:38:32;23.40;88.00
23813;DHT22;12087;45.190;5.688;2022-07-10T08:43:54;23.70;87.80
23813;DHT22;12087;45.190;5.688;2022-07-10T08:49:17;24.20;86.40
23813;DHT22;12087;45.190;5.688;2022-07-10T08:54:42;24.80;86.70
23813;DHT22;12087;45.190;5.688;2022-07-10T09:00:06;25.30;83.50
23813;DHT22;12087;45.190;5.688;2022-07-10T09:05:28;25.70;82.20
23813;DHT22;12087;45.190;5.688;2022-07-10T09:10:52;26.10;83.20
23813;DHT22;12087;45.190;5.688;2022-07-10T09:16:21;26.60;81.80
23813;DHT22;12087;45.190;5.688;2022-07-10T09:21:44;26.90;79.30
23813;DHT22;12087;45.190;5.688;2022-07-10T09:27:09;27.20;78.70
23813;DHT22;12087;45.190;5.688;2022-07-10T09:32:31;27.60;77.50
23813;DHT22;12087;45.190;5.688;2022-07-10T09:37:54;27.70;74.70
23813;DHT22;12087;45.190;5.688;2022-07-10T09:43:17;27.70;73.30
23813;DHT22;12087;45.190;5.688;2022-07-10T09:48:39;28.00;74.50
23813;DHT22;12087;45.190;5.688;2022-07-10T09:54:03;28.20;73.20
23813;DHT22;12087;45.190;5.688;2022-07-10T09:59:30;28.50;72.40
23813;DHT22;12087;45.190;5.688;2022-07-10T10:04:53;28.60;71.90
23813;DHT22;12087;45.190;5.688;2022-07-10T10:10:15;28.60;70.20
23813;DHT22;12087;45.190;5.688;2022-07-10T10:15:39;28.80;71.10
23813;DHT22;12087;45.190;5.688;2022-07-10T10:21:02;28.90;68.90
23813;DHT22;12087;45.190;5.688;2022-07-10T10:26:27;29.00;68.40
23813;DHT22;12087;45.190;5.688;2022-07-10T10:31:51;29.10;68.40
23813;DHT22;12087;45.190;5.688;2022-07-10T10:37:33;29.30;65.90
23813;DHT22;12087;45.190;5.688;2022-07-10T10:42:58;29.60;68.30
23813;DHT22;12087;45.190;5.688;2022-07-10T10:49:03;29.90;66.30
23813;DHT22;12087;45.190;5.688;2022-07-10T10:54:29;30.00;66.90
23813;DHT22;12087;45.190;5.688;2022-07-10T10:59:52;30.20;64.70
23813;DHT22;12087;45.190;5.688;2022-07-10T11:05:40;30.30;64.10
23813;DHT22;12087;45.190;5.688;2022-07-10T11:11:38;30.50;64.80
23813;DHT22;12087;45.190;5.688;2022-07-10T11:17:01;30.60;64.20
23813;DHT22;12087;45.190;5.688;2022-07-10T11:22:43;31.00;62.30
23813;DHT22;12087;45.190;5.688;2022-07-10T11:28:09;31.20;62.20
23813;DHT22;12087;45.190;5.688;2022-07-10T11:33:39;31.30;61.50
23813;DHT22;12087;45.190;5.688;2022-07-10T11:39:06;31.20;61.30
23813;DHT22;12087;45.190;5.688;2022-07-10T11:44:29;31.40;61.50
23813;DHT22;12087;45.190;5.688;2022-07-10T11:49:52;31.50;60.90
23813;DHT22;12087;45.190;5.688;2022-07-10T11:55:16;31.70;59.50
23813;DHT22;12087;45.190;5.688;2022-07-10T12:00:39;31.80;58.60
23813;DHT22;12087;45.190;5.688;2022-07-10T12:06:02;32.00;58.00
23813;DHT22;12087;45.190;5.688;2022-07-10T12:11:26;32.10;59.30
23813;DHT22;12087;45.190;5.688;2022-07-10T12:16:50;32.10;58.50
23813;DHT22;12087;45.190;5.688;2022-07-10T12:22:13;32.10;58.00
23813;DHT22;12087;45.190;5.688;2022-07-10T12:27:40;32.10;58.90
23813;DHT22;12087;45.190;5.688;2022-07-10T12:33:07;32.10;58.30
23813;DHT22;12087;45.190;5.688;2022-07-10T12:38:30;32.30;57.60
23813;DHT22;12087;45.190;5.688;2022-07-10T12:43:55;32.50;57.30
23813;DHT22;12087;45.190;5.688;2022-07-10T12:49:17;32.60;57.40
23813;DHT22;12087;45.190;5.688;2022-07-10T12:54:39;32.60;57.00
23813;DHT22;12087;45.190;5.688;2022-07-10T13:00:07;32.70;56.50
23813;DHT22;12087;45.190;5.688;2022-07-10T13:05:35;32.60;56.00
23813;DHT22;12087;45.190;5.688;2022-07-10T13:10:59;32.90;56.10
23813;DHT22;12087;45.190;5.688;2022-07-10T13:16:23;33.00;56.10
23813;DHT22;12087;45.190;5.688;2022-07-10T13:21:45;33.00;54.70
23813;DHT22;12087;45.190;5.688;2022-07-10T13:27:07;33.10;55.50
23813;DHT22;12087;45.190;5.688;2022-07-10T13:32:31;32.90;55.30
23813;DHT22;12087;45.190;5.688;2022-07-10T13:37:54;32.90;56.50
23813;DHT22;12087;45.190;5.688;2022-07-10T13:43:16;33.20;55.00
23813;DHT22;12087;45.190;5.688;2022-07-10T13:48:41;33.20;54.70
23813;DHT22;12087;45.190;5.688;2022-07-10T13:54:04;33.10;55.50
23813;DHT22;12087;45.190;5.688;2022-07-10T13:59:27;33.20;56.00
23813;DHT22;12087;45.190;5.688;2022-07-10T14:04:50;33.30;56.10
23813;DHT22;12087;45.190;5.688;2022-07-10T14:10:12;33.10;55.40
23813;DHT22;12087;45.190;5.688;2022-07-10T14:15:35;33.10;55.30
23813;DHT22;12087;45.190;5.688;2022-07-10T14:20:59;32.90;56.50
23813;DHT22;12087;45.190;5.688;2022-07-10T14:26:25;32.80;56.80
23813;DHT22;12087;45.190;5.688;2022-07-10T14:31:47;32.60;56.90
23813;DHT22;12087;45.190;5.688;2022-07-10T14:37:11;32.20;56.90
23813;DHT22;12087;45.190;5.688;2022-07-10T14:42:33;32.20;57.60
23813;DHT22;12087;45.190;5.688;2022-07-10T14:47:55;32.10;57.70
23813;DHT22;12087;45.190;5.688;2022-07-10T14:53:20;32.00;58.50
23813;DHT22;12087;45.190;5.688;2022-07-10T14:58:43;31.90;58.10
23813;DHT22;12087;45.190;5.688;2022-07-10T15:04:05;31.70;58.80
23813;DHT22;12087;45.190;5.688;2022-07-10T15:09:29;31.40;58.90
23813;DHT22;12087;45.190;5.688;2022-07-10T15:14:51;31.20;59.70
23813;DHT22;12087;45.190;5.688;2022-07-10T15:20:13;31.10;59.60
23813;DHT22;12087;45.190;5.688;2022-07-10T15:25:38;31.00;60.90
23813;DHT22;12087;45.190;5.688;2022-07-10T15:31:01;30.90;60.80
23813;DHT22;12087;45.190;5.688;2022-07-10T15:36:26;30.70;61.00
23813;DHT22;12087;45.190;5.688;2022-07-10T15:41:50;30.60;62.10
23813;DHT22;12087;45.190;5.688;2022-07-10T15:47:12;30.40;62.40
23813;DHT22;12087;45.190;5.688;2022-07-10T15:52:34;30.40;63.00
23813;DHT22;12087;45.190;5.688;2022-07-10T15:57:58;30.40;62.60
23813;DHT22;12087;45.190;5.688;2022-07-10T16:03:20;30.30;64.20
23813;DHT22;12087;45.190;5.688;2022-07-10T16:08:42;30.20;63.50
23813;DHT22;12087;45.190;5.688;2022-07-10T16:14:06;30.00;64.30
23813;DHT22;12087;45.190;5.688;2022-07-10T16:19:28;29.90;63.70
23813;DHT22;12087;45.190;5.688;2022-07-10T16:24:51;29.80;64.70
23813;DHT22;12087;45.190;5.688;2022-07-10T16:30:32;29.70;64.80
23813;DHT22;12087;45.190;5.688;2022-07-10T16:35:54;29.70;65.50
23813;DHT22;12087;45.190;5.688;2022-07-10T16:41:17;29.60;65.90
23813;DHT22;12087;45.190;5.688;2022-07-10T16:46:40;29.50;66.40
23813;DHT22;12087;45.190;5.688;2022-07-10T16:52:03;29.40;66.90
23813;DHT22;12087;45.190;5.688;2022-07-10T16:57:25;29.30;67.50
23813;DHT22;12087;45.190;5.688;2022-07-10T17:02:49;29.20;68.30
23813;DHT22;12087;45.190;5.688;2022-07-10T17:08:12;29.10;68.00
23813;DHT22;12087;45.190;5.688;2022-07-10T17:13:35;29.00;68.50
23813;DHT22;12087;45.190;5.688;2022-07-10T17:18:58;29.00;68.90
23813;DHT22;12087;45.190;5.688;2022-07-10T17:24:21;28.90;68.90
23813;DHT22;12087;45.190;5.688;2022-07-10T17:29:43;28.80;69.10
23813;DHT22;12087;45.190;5.688;2022-07-10T17:35:09;28.70;69.30
23813;DHT22;12087;45.190;5.688;2022-07-10T17:40:31;28.60;69.50
23813;DHT22;12087;45.190;5.688;2022-07-10T17:45:54;28.50;69.80
23813;DHT22;12087;45.190;5.688;2022-07-10T17:51:17;28.40;70.60
23813;DHT22;12087;45.190;5.688;2022-07-10T17:56:40;28.30;70.00
23813;DHT22;12087;45.190;5.688;2022-07-10T18:02:03;28.20;70.80
23813;DHT22;12087;45.190;5.688;2022-07-10T18:07:28;28.10;70.20
23813;DHT22;12087;45.190;5.688;2022-07-10T18:12:52;28.00;71.30
23813;DHT22;12087;45.190;5.688;2022-07-10T18:18:14;27.90;71.10
23813;DHT22;12087;45.190;5.688;2022-07-10T18:23:38;27.90;71.30
23813;DHT22;12087;45.190;5.688;2022-07-10T18:29:01;27.80;71.20
23813;DHT22;12087;45.190;5.688;2022-07-10T18:34:23;27.70;71.30
23813;DHT22;12087;45.190;5.688;2022-07-10T18:39:53;27.60;70.40
23813;DHT22;12087;45.190;5.688;2022-07-10T18:45:15;27.50;70.90
23813;DHT22;12087;45.190;5.688;2022-07-10T18:50:37;27.40;70.20
23813;DHT22;12087;45.190;5.688;2022-07-10T18:56:01;27.30;69.00
23813;DHT22;12087;45.190;5.688;2022-07-10T19:01:23;27.20;68.30
23813;DHT22;12087;45.190;5.688;2022-07-10T19:06:46;27.10;68.30
23813;DHT22;12087;45.190;5.688;2022-07-10T19:12:09;27.00;68.00
23813;DHT22;12087;45.190;5.688;2022-07-10T19:17:32;27.00;68.20
23813;DHT22;12087;45.190;5.688;2022-07-10T19:22:54;26.90;67.90
23813;DHT22;12087;45.190;5.688;2022-07-10T19:28:17;26.80;67.90
23813;DHT22;12087;45.190;5.688;2022-07-10T19:33:40;26.70;67.80
23813;DHT22;12087;45.190;5.688;2022-07-10T19:39:02;26.60;67.90
23813;DHT22;12087;45.190;5.688;2022-07-10T19:44:26;26.50;67.80
23813;DHT22;12087;45.190;5.688;2022-07-10T19:49:48;26.40;68.20
23813;DHT22;12087;45.190;5.688;2022-07-10T19:55:12;26.40;68.60
23813;DHT22;12087;45.190;5.688;2022-07-10T20:00:36;26.30;68.90
23813;DHT22;12087;45.190;5.688;2022-07-10T20:05:58;26.30;69.10
23813;DHT22;12087;45.190;5.688;2022-07-10T20:11:20;26.20;69.20
23813;DHT22;12087;45.190;5.688;2022-07-10T20:16:44;26.10;69.10
23813;DHT22;12087;45.190;5.688;2022-07-10T20:22:11;26.00;70.30
23813;DHT22;12087;45.190;5.688;2022-07-10T20:27:33;25.90;70.60
23813;DHT22;12087;45.190;5.688;2022-07-10T20:32:57;25.90;70.70
23813;DHT22;12087;45.190;5.688;2022-07-10T20:38:19;25.80;71.00
23813;DHT22;12087;45.190;5.688;2022-07-10T20:43:41;25.70;70.80
23813;DHT22;12087;45.190;5.688;2022-07-10T20:49:05;25.60;71.30
23813;DHT22;12087;45.190;5.688;2022-07-10T20:54:27;25.60;71.60
23813;DHT22;12087;45.190;5.688;2022-07-10T20:59:49;25.50;71.30
23813;DHT22;12087;45.190;5.688;2022-07-10T21:05:14;25.50;71.70
23813;DHT22;12087;45.190;5.688;2022-07-10T21:10:36;25.40;71.50
23813;DHT22;12087;45.190;5.688;2022-07-10T21:16:05;25.30;71.70
23813;DHT22;12087;45.190;5.688;2022-07-10T21:21:28;25.30;72.40
23813;DHT22;12087;45.190;5.688;2022-07-10T21:26:51;25.20;73.00
23813;DHT22;12087;45.190;5.688;2022-07-10T21:32:13;25.00;73.00
23813;DHT22;12087;45.190;5.688;2022-07-10T21:37:37;25.00;73.30
23813;DHT22;12087;45.190;5.688;2022-07-10T21:42:59;24.90;73.30
23813;DHT22;12087;45.190;5.688;2022-07-10T21:48:21;24.80;73.90
23813;DHT22;12087;45.190;5.688;2022-07-10T21:53:47;24.70;73.90
23813;DHT22;12087;45.190;5.688;2022-07-10T21:59:10;24.70;74.00
23813;DHT22;12087;45.190;5.688;2022-07-10T22:04:33;24.60;74.20
23813;DHT22;12087;45.190;5.688;2022-07-10T22:09:56;24.60;74.40
23813;DHT22;12087;45.190;5.688;2022-07-10T22:15:19;24.50;74.10
23813;DHT22;12087;45.190;5.688;2022-07-10T22:20:41;24.40;74.60
23813;DHT22;12087;45.190;5.688;2022-07-10T22:26:05;24.30;74.40
23813;DHT22;12087;45.190;5.688;2022-07-10T22:31:27;24.20;74.90
23813;DHT22;12087;45.190;5.688;2022-07-10T22:36:49;24.20;75.30
23813;DHT22;12087;45.190;5.688;2022-07-10T22:42:13;24.10;75.10
23813;DHT22;12087;45.190;5.688;2022-07-10T22:47:35;24.00;75.40
23813;DHT22;12087;45.190;5.688;2022-07-10T22:52:57;24.00;75.20
23813;DHT22;12087;45.190;5.688;2022-07-10T22:58:21;23.90;75.60
23813;DHT22;12087;45.190;5.688;2022-07-10T23:03:43;23.90;75.90
23813;DHT22;12087;45.190;5.688;2022-07-10T23:09:05;23.80;75.50
23813;DHT22;12087;45.190;5.688;2022-07-10T23:14:29;23.80;76.00
23813;DHT22;12087;45.190;5.688;2022-07-10T23:19:51;23.70;76.00
23813;DHT22;12087;45.190;5.688;2022-07-10T23:25:14;23.60;76.00
23813;DHT22;12087;45.190;5.688;2022-07-10T23:30:37;23.60;76.30
23813;DHT22;12087;45.190;5.688;2022-07-10T23:35:59;23.50;76.50
23813;DHT22;12087;45.190;5.688;2022-07-10T23:41:22;23.50;76.50
23813;DHT22;12087;45.190;5.688;2022-07-10T23:46:45;23.50;76.50
23813;DHT22;12087;45.190;5.688;2022-07-10T23:52:08;23.50;76.40
23813;DHT22;12087;45.190;5.688;2022-07-10T23:57:30;23.40;76.50
